Main page
METAR-TAF:

METAR-TAF

Airports :

Ángel S. Adami Airport

Montevideo, Uruguay

latitude: 34-47S, longitude: 056-15W, elevation: 53 m

Current weather observation

The report was made 30 minutes ago, at 11:00 UTC
Wind 7 kt from the North/Northwest
Temperature 7°C
Humidity 93%
Pressure 1015 hPa
Visibility 10 km or more
no clouds below 1500 m and no cumulonimbus

METAR: SUAA 121100Z 33007KT CAVOK 07/06 Q1015

Time: 08:30 (11:30 UTC)

Forecast

The report was made 6 hours and 0 minutes ago, at 05:30 UTC
Forecast valid from 12 at 06 UTC to 13 at 06 UTC
Wind 10 kt from the North/Northwest
Visibility 10 km or more
no clouds below 1500 m and no cumulonimbus

TAF: SUAA 120530Z 1206/1306 34010KT CAVOK TX17/1218Z TN06/1210Z

Weather observations and forecasts of more than 4000 airports (METAR and TAF reports).

The available stations are represented by yellow and red dots on the map.

Hover mouse over dot to see the name of the station.

Then click to see weather observations and forecasts.

To change the map : click on the green buttons with a black cross to zoom in, on the green button with a dash to zoom out, or on the green arrows for adjacent maps.


METAR-TAF: